Latest Weather Observations for Brisbane Airport

IDQ60901

Issued at 10:31 am EST Wednesday 31 August 2016 (issued every 10 minutes, with the page automatically refreshed every 10 minutes)

About weather observations | Map of Brisbane area stations | Latest observations for Brisbane area | Other Formats
Station Details ID: 040842 Name: BRISBANE AERO Lat: -27.39 Lon: 153.13 Height: 4.51 m
Data from the previous 72 hours. | See also: Recent months at Brisbane Airport
Date/Time
EST
Temp
°C
App
Temp
°C
Dew
Point
°C
Rel
Hum
%
Delta-T
°C
Wind Press
QNH
hPa
Press
MSL
hPa
Rain since
9am
mm
Dir  Spd
km/h
Gust
km/h
Spd
kts
Gust
kts
31/10:00am 20.1 17.9 12.2 60 4.4 SW 15 20 8 11 1026.8 1026.7 0.0
31/09:30am 19.2 17.1 12.4 64 3.8 SSW 15 20 8 11 1027.1 1027.0 0.0
31/09:00am 17.8 14.5 11.7 67 3.3 SSW 20 24 11 13 1027.1 1027.0 0.0
31/08:30am 16.6 13.8 11.4 71 2.8 SSW 17 20 9 11 1027.1 1027.0 0.0
31/08:00am 15.6 12.8 11.5 76 2.2 SSW 17 20 9 11 1026.8 1026.7 0.0
31/07:30am 15.0 12.7 11.6 80 1.8 SSW 15 19 8 10 1026.7 1026.6 0.0
31/07:00am 13.8 11.8 11.5 86 1.2 SW 13 17 7 9 1026.4 1026.3 0.0
31/06:30am 12.1 10.2 10.5 90 0.8 SW 11 13 6 7 1025.8 1025.7 0.0
31/06:00am 12.4 10.1 10.5 88 1.0 SSW 13 19 7 10 1025.6 1025.5 0.0
31/05:30am 11.8 10.2 10.2 90 0.8 SSW 9 11 5 6 1025.4 1025.3 0.0
31/05:00am 12.3 11.1 10.4 88 1.0 SSW 7 9 4 5 1025.1 1025.0 0.0
31/04:30am 12.1 9.8 10.3 89 0.9 SSW 13 15 7 8 1025.3 1025.2 0.0
31/04:00am 12.3 10.4 10.6 89 0.9 SSW 11 13 6 7 1024.9 1024.8 0.0
31/03:30am 12.9 11.5 11.0 88 1.0 SSW 9 11 5 6 1025.0 1024.9 0.0
31/03:00am 12.8 11.5 11.3 91 0.8 SW 9 9 5 5 1025.1 1025.0 0.0
31/02:30am 13.5 12.4 11.8 89 0.9 SW 9 11 5 6 1025.4 1025.3 0.0
31/02:00am 12.9 11.7 11.6 92 0.7 SW 9 11 5 6 1025.7 1025.6 0.0
31/01:30am 13.1 12.4 12.0 93 0.6 SSW 7 9 4 5 1025.9 1025.8 0.0
31/01:00am 13.7 12.6 12.0 89 0.9 SSW 9 9 5 5 1026.2 1026.1 0.0
31/12:30am 13.4 12.7 11.9 91 0.8 SSW 7 9 4 5 1026.5 1026.4 0.0
31/12:00am 13.8 14.5 12.1 89 0.9 CALM 0 0 0 0 1026.4 1026.3 0.0
 
Date/Time
EST
Temp
°C
App
Temp
°C
Dew
Point
°C
Rel
Hum
%
Delta-T
°C
Wind Press
QNH
hPa
Press
MSL
hPa
Rain since
9am
mm
Dir  Spd
km/h
Gust
km/h
Spd
kts
Gust
kts
30/11:30pm 14.5 15.3 12.5 88 1.1 CALM 0 0 0 0 1026.7 1026.6 0.0
30/11:00pm 15.3 16.3 13.1 87 1.2 CALM 0 0 0 0 1026.9 1026.8 0.0
30/10:30pm 16.4 17.4 13.3 82 1.7 CALM 0 0 0 0 1027.1 1027.0 0.0
30/10:00pm 16.7 17.6 12.9 78 2.1 CALM 0 0 0 0 1027.3 1027.2 0.0
30/09:30pm 16.5 16.7 13.1 80 1.9 NNE 4 9 2 5 1027.2 1027.1 0.0
30/09:00pm 16.3 17.2 13.0 81 1.8 CALM 0 0 0 0 1027.4 1027.3 0.0
30/08:30pm 16.5 16.2 12.7 78 2.1 NE 6 7 3 4 1027.5 1027.4 0.0
30/08:00pm 16.9 16.2 11.9 72 2.7 NE 7 9 4 5 1027.3 1027.2 0.0
30/07:30pm 17.5 16.4 11.8 69 3.1 NE 9 11 5 6 1027.2 1027.1 0.0
30/07:00pm 18.4 16.7 11.2 63 3.9 ENE 11 15 6 8 1027.0 1026.9 0.0
30/06:30pm 18.6 16.8 11.0 61 4.1 ENE 11 13 6 7 1026.6 1026.5 0.0
30/06:00pm 18.8 16.5 10.4 58 4.5 ENE 13 17 7 9 1026.4 1026.3 0.0
30/05:30pm 19.1 16.6 9.8 55 4.9 ENE 13 20 7 11 1026.4 1026.3 0.0
30/05:00pm 19.7 17.8 10.4 55 5.0 ENE 11 17 6 9 1026.1 1026.0 0.0
30/04:30pm 20.2 17.0 10.1 52 5.4 ENE 17 22 9 12 1026.1 1026.0 0.0
30/04:00pm 20.5 17.5 10.5 52 5.4 ENE 17 22 9 12 1026.1 1026.0 0.0
30/03:30pm 20.9 17.9 10.6 51 5.6 ENE 17 24 9 13 1026.2 1026.1 0.0
30/03:00pm 21.3 17.8 8.7 44 6.6 ENE 17 24 9 13 1026.2 1026.1 0.0
30/02:30pm 21.0 17.9 8.8 45 6.4 ENE 15 22 8 12 1026.4 1026.3 0.0
30/02:00pm 21.2 17.8 9.3 46 6.3 ENE 17 26 9 14 1026.7 1026.6 0.0
30/01:30pm 22.1 18.7 10.5 47 6.4 ENE 19 28 10 15 1026.8 1026.7 0.0
30/01:00pm 21.8 18.0 9.2 44 6.7 ENE 19 26 10 14 1027.2 1027.1 0.0
30/12:30pm 21.6 18.2 9.1 44 6.7 ENE 17 24 9 13 1027.6 1027.5 0.0
30/12:00pm 22.1 18.8 9.6 45 6.7 ENE 17 26 9 14 1028.0 1027.9 0.0
30/11:30am 22.0 18.9 10.2 47 6.4 E 17 26 9 14 1028.2 1028.1 0.0
30/11:00am 21.4 18.5 11.0 51 5.7 E 17 24 9 13 1028.7 1028.6 0.0
30/10:30am 21.3 18.9 11.5 53 5.4 ENE 15 22 8 12 1029.0 1028.9 0.0
30/10:00am 21.0 18.7 11.6 55 5.2 E 15 22 8 12 1029.3 1029.2 0.0
30/09:30am 20.7 18.8 11.9 57 4.9 ESE 13 17 7 9 1029.1 1029.0 0.0
30/09:00am 19.3 18.4 12.5 64 3.8 SE 9 15 5 8 1029.0 1028.9 0.0
30/08:30am 18.7 18.2 12.6 67 3.4 SSE 7 11 4 6 1028.8 1028.7 0.0
30/08:00am 17.9 17.2 13.1 73 2.7 SSW 9 13 5 7 1028.7 1028.6 0.0
30/07:30am 16.1 15.0 13.0 82 1.7 SSW 11 13 6 7 1028.2 1028.1 0.0
30/07:00am 15.0 13.4 12.8 87 1.2 SSW 13 15 7 8 1027.9 1027.8 0.0
30/06:30am 14.6 13.2 12.2 85 1.3 SSW 11 13 6 7 1027.2 1027.1 0.0
30/06:00am 14.5 13.2 12.5 88 1.1 SSW 11 13 6 7 1026.7 1026.6 0.0
30/05:30am 14.5 13.6 12.7 89 1.0 SSW 9 9 5 5 1026.0 1025.9 0.0
30/05:00am 14.7 13.8 12.7 88 1.1 SSW 9 11 5 6 1025.8 1025.7 0.0
30/04:30am 14.4 13.6 12.9 91 0.8 SSW 9 9 5 5 1025.6 1025.5 0.0
30/04:00am 14.2 13.3 12.7 91 0.8 SSW 9 11 5 6 1025.3 1025.2 0.0
30/03:30am 13.7 12.7 12.4 92 0.7 SSW 9 11 5 6 1025.3 1025.2 0.0
30/03:00am 13.5 12.5 12.4 93 0.6 SSW 9 9 5 5 1025.2 1025.1 0.0
30/02:30am 13.9 12.9 12.4 91 0.8 SSW 9 11 5 6 1025.1 1025.0 0.0
30/02:00am 13.9 12.9 12.4 91 0.8 SSW 9 11 5 6 1025.4 1025.3 0.0
30/01:30am 13.2 12.6 12.3 94 0.5 SSW 7 7 4 4 1025.7 1025.6 0.0
30/01:00am 13.1 12.5 12.2 94 0.5 SSW 7 9 4 5 1025.9 1025.8 0.0
30/12:30am 13.0 12.6 12.3 95 0.4 SSW 6 9 3 5 1026.1 1026.0 0.0
30/12:00am 14.1 14.9 12.4 89 0.9 CALM 0 0 0 0 1026.3 1026.2 0.0
 
Date/Time
EST
Temp
°C
App
Temp
°C
Dew
Point
°C
Rel
Hum
%
Delta-T
°C
Wind Press
QNH
hPa
Press
MSL
hPa
Rain since
9am
mm
Dir  Spd
km/h
Gust
km/h
Spd
kts
Gust
kts
29/11:30pm 14.4 15.2 12.6 89 1.0 CALM 0 0 0 0 1026.4 1026.3 0.0
29/11:00pm 15.2 16.2 13.2 88 1.1 CALM 0 0 0 0 1026.6 1026.5 0.0
29/10:30pm 15.3 16.2 12.9 85 1.3 CALM 0 0 0 0 1026.6 1026.5 0.0
29/10:00pm 15.5 16.5 13.1 85 1.3 CALM 0 0 0 0 1026.8 1026.7 0.0
29/09:30pm 16.4 17.5 13.5 83 1.6 CALM 0 0 0 0 1026.8 1026.7 0.0
29/09:00pm 16.1 17.0 12.8 81 1.8 CALM 0 0 0 0 1026.8 1026.7 0.0
29/08:30pm 16.4 17.2 12.6 78 2.1 CALM 0 0 0 0 1026.7 1026.6 0.0
29/08:00pm 16.7 15.5 12.9 78 2.1 NE 11 13 6 7 1026.5 1026.4 0.0
29/07:30pm 16.4 15.6 12.8 79 2.0 NE 9 13 5 7 1026.4 1026.3 0.0
29/07:00pm 17.7 16.1 12.8 73 2.7 NE 13 15 7 8 1026.1 1026.0 0.0
29/06:30pm 18.1 16.5 12.9 71 2.9 NE 13 17 7 9 1026.0 1025.9 0.0
29/06:00pm 18.7 16.7 12.6 67 3.4 NE 15 19 8 10 1025.4 1025.3 0.0
29/05:30pm 18.0 17.4 13.4 74 2.6 NNE 9 13 5 7 1025.5 1025.4 0.0
29/05:00pm 19.4 18.0 13.4 68 3.4 NNE 13 17 7 9 1025.1 1025.0 0.0
29/04:30pm 20.0 17.7 13.1 64 3.9 NE 17 20 9 11 1024.7 1024.6 0.0
29/04:00pm 20.9 18.2 13.0 60 4.5 NE 19 26 10 14 1024.5 1024.4 0.0
29/03:30pm 20.7 18.0 12.9 61 4.4 NE 19 24 10 13 1024.6 1024.5 0.0
29/03:00pm 21.3 18.2 12.2 56 5.1 NE 20 26 11 14 1024.4 1024.3 0.0
29/02:30pm 21.2 17.9 11.6 54 5.3 NE 20 26 11 14 1024.3 1024.2 0.0
29/02:00pm 21.7 18.4 10.9 50 5.9 NE 19 26 10 14 1024.2 1024.1 0.0
29/01:30pm 21.9 18.2 9.6 45 6.6 NE 19 24 10 13 1024.2 1024.1 0.0
29/01:00pm 22.0 18.5 10.9 49 6.1 NE 20 24 11 13 1024.5 1024.4 0.0
29/12:30pm 21.5 18.5 11.8 54 5.4 NE 19 26 10 14 1024.8 1024.7 0.0
29/12:00pm 21.6 18.6 10.8 50 5.9 NNE 17 22 9 12 1025.2 1025.1 0.0
29/11:30am 21.9 19.6 11.6 52 5.7 NNE 15 22 8 12 1025.5 1025.4 0.0
29/11:00am 20.7 18.6 11.0 53 5.3 N 13 19 7 10 1025.9 1025.8 0.0
29/10:30am 20.9 19.7 11.5 55 5.2 NNE 9 15 5 8 1026.2 1026.1 0.0
29/10:00am 19.7 18.4 11.3 58 4.6 WSW 9 15 5 8 1026.2 1026.1 0.0
29/09:30am 18.7 16.2 10.9 60 4.2 SSW 15 20 8 11 1026.3 1026.2 0.0
29/09:00am 17.8 14.9 10.9 64 3.7 SSW 17 20 9 11 1026.5 1026.4 0.0
29/08:30am 16.7 14.3 11.3 70 2.9 SW 15 19 8 10 1026.2 1026.1 0.0
29/08:00am 15.0 12.7 10.6 75 2.3 SSW 13 17 7 9 1025.8 1025.7 0.0
29/07:30am 13.8 11.6 10.7 81 1.6 SSW 13 19 7 10 1025.6 1025.5 0.0
29/07:00am 12.3 9.9 10.1 86 1.1 SSW 13 19 7 10 1025.4 1025.3 0.0
29/06:30am 10.7 7.7 9.3 91 0.7 SSW 15 19 8 10 1024.8 1024.7 0.0
29/06:00am 10.5 7.8 9.1 91 0.7 SSW 13 15 7 8 1024.2 1024.1 0.0
29/05:30am 10.9 8.4 9.7 92 0.6 SSW 13 17 7 9 1023.9 1023.8 0.0
29/05:00am 10.7 8.1 9.3 91 0.7 SSW 13 17 7 9 1023.5 1023.4 0.0
29/04:30am 11.7 9.3 10.1 90 0.8 SSW 13 17 7 9 1023.2 1023.1 0.0
29/04:00am 11.7 9.0 10.3 91 0.7 SSW 15 19 8 10 1023.3 1023.2 0.0
29/03:30am 12.0 9.4 10.6 91 0.7 SSW 15 17 8 9 1023.3 1023.2 0.0
29/03:00am 11.6 9.3 10.6 94 0.5 SSW 13 15 7 8 1023.4 1023.3 0.0
29/02:30am 12.1 10.3 10.7 91 0.7 SSW 11 13 6 7 1023.4 1023.3 0.0
29/02:00am 12.0 10.1 10.6 91 0.7 SSW 11 15 6 8 1023.5 1023.4 0.0
29/01:30am 12.3 11.0 11.2 93 0.6 SSW 9 11 5 6 1023.6 1023.5 0.0
29/01:00am 12.4 11.0 10.9 90 0.8 SSW 9 9 5 5 1023.6 1023.5 0.0
29/12:30am 12.4 11.4 10.9 90 0.8 SW 7 9 4 5 1023.7 1023.6 0.0
29/12:00am 13.2 11.8 10.9 86 1.2 WSW 9 13 5 7 1023.6 1023.5 0.0
 
Date/Time
EST
Temp
°C
App
Temp
°C
Dew
Point
°C
Rel
Hum
%
Delta-T
°C
Wind Press
QNH
hPa
Press
MSL
hPa
Rain since
9am
mm
Dir  Spd
km/h
Gust
km/h
Spd
kts
Gust
kts
28/11:30pm 14.1 13.4 11.5 84 1.4 WSW 6 7 3 4 1023.5 1023.4 0.0
28/11:00pm 14.0 13.2 11.6 85 1.3 W 7 9 4 5 1023.4 1023.3 0.0
28/10:30pm 14.2 13.7 12.0 87 1.2 W 6 11 3 6 1023.4 1023.3 0.0
28/10:00pm 14.9 15.7 12.5 85 1.3 CALM 0 0 0 0 1023.4 1023.3 0.0
28/09:30pm 14.7 14.2 12.7 88 1.1 WNW 7 11 4 6 1023.5 1023.4 0.0
28/09:00pm 14.5 15.3 12.5 88 1.1 CALM 0 0 0 0 1023.4 1023.3 0.0
28/08:30pm 15.5 15.0 12.2 81 1.8 NNW 6 7 3 4 1023.3 1023.2 0.0
28/08:00pm 16.0 15.4 12.3 79 2.0 NE 7 7 4 4 1023.0 1022.9 0.0
28/07:30pm 17.7 17.1 12.3 70 3.0 ENE 7 9 4 5 1022.7 1022.6 0.0
28/07:00pm 17.7 17.2 12.5 71 2.9 ENE 7 11 4 6 1022.4 1022.3 0.0
28/06:30pm 17.8 16.8 12.4 70 3.0 NE 9 11 5 6 1022.2 1022.1 0.0
28/06:00pm 18.2 16.7 11.8 66 3.5 ENE 11 15 6 8 1022.0 1021.9 0.0
28/05:30pm 18.5 16.5 11.5 63 3.8 NE 13 19 7 10 1021.7 1021.6 0.0
28/05:00pm 19.4 16.5 10.9 58 4.6 NE 17 20 9 11 1021.5 1021.4 0.0
28/04:30pm 19.7 16.4 10.9 57 4.8 NE 19 26 10 14 1021.0 1020.9 0.0
28/04:00pm 20.4 16.3 8.8 47 6.1 NE 20 26 11 14 1020.7 1020.6 0.0
28/03:30pm 20.8 17.2 9.8 49 5.9 NNE 19 22 10 12 1020.9 1020.8 0.0
28/03:00pm 21.2 18.1 8.9 45 6.5 NE 15 19 8 10 1021.1 1021.0 0.0
28/02:30pm 21.3 17.9 7.8 41 7.0 NE 15 19 8 10 1021.2 1021.1 0.0
28/02:00pm 21.5 18.2 8.0 42 7.0 NE 15 22 8 12 1021.3 1021.2 0.0
28/01:30pm 20.9 16.8 8.0 43 6.7 NNE 19 26 10 14 1021.4 1021.3 0.0
28/01:00pm 20.7 17.3 7.7 43 6.7 ENE 15 20 8 11 1021.8 1021.7 0.0
28/12:30pm 21.2 18.0 8.4 43 6.7 E 15 26 8 14 1022.4 1022.3 0.0
28/12:00pm 21.6 19.0 7.9 41 7.1 ENE 11 17 6 9 1022.8 1022.7 0.0
28/11:30am 20.7 17.4 6.3 39 7.2 SSE 13 19 7 10 1023.6 1023.5 0.0
28/11:00am 20.4 17.0 6.1 39 7.1 S 13 20 7 11 1024.0 1023.9 0.0

Latest Capital City Observations: Canberra | Sydney | Melbourne | Brisbane | Adelaide | Perth | Hobart | Darwin

Other Formats:

Comma delimited format used in spreadsheet applications
http://www.bom.gov.au/fwo/IDQ60901/IDQ60901.94578.axf

JavaScript Object Notation format (JSON) in row-major order
http://www.bom.gov.au/fwo/IDQ60901/IDQ60901.94578.json